createdAt,value
2019-04-30T00:01:30.891Z,10.70
2019-04-30T00:04:08.894Z,12.50
2019-04-30T00:06:39.910Z,11.50
2019-04-30T00:09:15.140Z,11.00
2019-04-30T00:11:50.654Z,11.73
2019-04-30T00:14:19.394Z,10.13
2019-04-30T00:16:50.512Z,11.77
2019-04-30T00:19:21.627Z,13.40
2019-04-30T00:21:57.104Z,12.23
2019-04-30T00:24:25.995Z,11.90
2019-04-30T00:26:57.234Z,14.70
2019-04-30T00:29:31.022Z,27.17
2019-04-30T00:32:04.474Z,35.87
2019-04-30T00:34:35.879Z,33.57
2019-04-30T00:37:13.843Z,31.83
2019-04-30T00:39:44.367Z,24.83
2019-04-30T00:42:17.299Z,20.47
2019-04-30T00:44:45.709Z,29.00
2019-04-30T00:47:16.813Z,20.70
2019-04-30T00:49:52.165Z,18.07
2019-04-30T00:52:20.448Z,16.80
2019-04-30T00:54:51.443Z,18.40
2019-04-30T00:57:22.412Z,16.30
2019-04-30T00:59:54.902Z,15.67
2019-04-30T01:03:00.857Z,17.40
2019-04-30T01:05:32.566Z,20.20
2019-04-30T01:08:04.972Z,16.97
2019-04-30T01:10:36.814Z,15.43
2019-04-30T01:13:11.822Z,22.83
2019-04-30T01:15:43.905Z,24.20
2019-04-30T01:18:13.243Z,19.13
2019-04-30T01:20:44.380Z,18.70
2019-04-30T01:23:17.000Z,18.73
2019-04-30T01:25:51.312Z,15.57
2019-04-30T01:28:24.236Z,16.67
2019-04-30T01:30:58.754Z,19.20
2019-04-30T01:33:28.472Z,15.73
2019-04-30T01:35:59.912Z,23.30
2019-04-30T01:38:32.637Z,18.00
2019-04-30T01:41:04.075Z,20.07
2019-04-30T01:43:35.074Z,18.40
2019-04-30T01:46:09.418Z,23.23
2019-04-30T01:48:39.338Z,22.90
2019-04-30T01:51:13.323Z,22.93
2019-04-30T01:53:43.824Z,24.13
2019-04-30T01:56:41.443Z,21.50
2019-04-30T01:59:18.964Z,19.60
2019-04-30T02:01:51.069Z,19.57
2019-04-30T02:04:22.122Z,21.60
2019-04-30T02:06:53.107Z,19.47
2019-04-30T02:09:24.289Z,19.50
2019-04-30T02:11:55.353Z,21.50
2019-04-30T02:14:26.411Z,25.23
2019-04-30T02:16:59.014Z,19.47
2019-04-30T02:19:31.218Z,21.27
2019-04-30T02:22:02.333Z,18.70
2019-04-30T02:24:33.291Z,18.17
2019-04-30T02:27:04.328Z,20.30
2019-04-30T02:29:35.365Z,21.77
2019-04-30T02:32:06.512Z,21.03
2019-04-30T02:34:44.334Z,19.43
2019-04-30T02:37:21.157Z,18.97
2019-04-30T02:39:52.381Z,22.73
2019-04-30T02:42:24.181Z,21.17
2019-04-30T02:44:56.721Z,21.40
2019-04-30T02:47:30.400Z,22.73
2019-04-30T02:50:15.449Z,24.90
2019-04-30T02:52:40.546Z,22.03
2019-04-30T02:55:19.376Z,28.00
2019-04-30T02:57:49.971Z,23.00
2019-04-30T03:00:21.159Z,22.80
2019-04-30T03:02:52.124Z,23.07
2019-04-30T03:05:23.105Z,24.33
2019-04-30T03:07:54.145Z,22.90
2019-04-30T03:10:25.114Z,26.20
2019-04-30T03:12:56.102Z,24.13
2019-04-30T03:15:29.580Z,23.47
2019-04-30T03:18:12.974Z,21.23
2019-04-30T03:21:01.530Z,23.17
2019-04-30T03:23:32.507Z,23.90
2019-04-30T03:26:03.490Z,27.10
2019-04-30T03:28:34.464Z,22.63
2019-04-30T03:31:05.526Z,23.93
2019-04-30T03:33:36.504Z,25.00
2019-04-30T03:36:11.958Z,26.77
2019-04-30T03:38:42.727Z,25.83
2019-04-30T03:41:13.217Z,25.80
2019-04-30T03:43:44.340Z,23.73
2019-04-30T03:46:15.424Z,27.03
2019-04-30T03:48:46.688Z,24.20
2019-04-30T03:51:19.872Z,28.67
2019-04-30T03:53:51.160Z,26.47
2019-04-30T03:56:22.848Z,26.47
2019-04-30T03:58:54.268Z,26.87
2019-04-30T04:01:33.554Z,25.07
2019-04-30T04:04:10.948Z,23.70
2019-04-30T04:06:49.038Z,26.20
2019-04-30T04:09:24.851Z,26.13
2019-04-30T04:11:59.856Z,24.60
2019-04-30T04:14:30.353Z,24.13
2019-04-30T04:17:01.750Z,23.30
2019-04-30T04:19:32.836Z,28.33
2019-04-30T04:22:04.288Z,27.13
2019-04-30T04:24:35.498Z,23.17
2019-04-30T04:27:06.491Z,22.73
2019-04-30T04:31:00.394Z,22.60
2019-04-30T04:33:31.388Z,31.07
2019-04-30T04:36:02.510Z,24.60
2019-04-30T04:38:33.520Z,24.50
2019-04-30T04:41:04.575Z,24.73
2019-04-30T04:43:35.645Z,23.47
2019-04-30T04:46:09.086Z,24.70
2019-04-30T04:48:39.546Z,20.27
2019-04-30T04:51:27.164Z,21.27
2019-04-30T04:53:43.287Z,22.63
2019-04-30T04:56:14.270Z,21.10
2019-04-30T04:58:45.321Z,21.03
2019-04-30T05:01:16.387Z,22.20
2019-04-30T05:03:48.965Z,21.93
2019-04-30T05:06:21.935Z,20.00
2019-04-30T05:08:52.909Z,21.17
2019-04-30T05:11:23.908Z,19.67
2019-04-30T05:13:54.866Z,20.77
2019-04-30T05:16:25.909Z,21.17
2019-04-30T05:18:58.604Z,19.20
2019-04-30T05:21:41.400Z,17.80
2019-04-30T05:24:02.311Z,18.00
2019-04-30T05:26:33.303Z,17.53
2019-04-30T05:29:04.337Z,17.80
2019-04-30T05:31:35.540Z,20.70
2019-04-30T05:34:10.075Z,25.47
2019-04-30T05:36:39.302Z,23.30
2019-04-30T05:39:10.265Z,20.70
2019-04-30T05:41:41.332Z,20.80
2019-04-30T05:44:12.289Z,21.10
2019-04-30T05:46:43.259Z,17.40
2019-04-30T05:49:14.227Z,19.93
2019-04-30T05:51:53.593Z,23.53
2019-04-30T05:54:19.011Z,26.87
2019-04-30T05:56:50.001Z,26.07
2019-04-30T05:59:22.110Z,19.43
2019-04-30T06:01:53.172Z,23.37
2019-04-30T06:04:24.246Z,23.93
2019-04-30T06:06:55.208Z,29.70
2019-04-30T06:09:35.446Z,27.10
2019-04-30T06:12:22.267Z,25.47
2019-04-30T06:15:05.555Z,20.73
2019-04-30T06:17:36.944Z,23.63
2019-04-30T06:20:17.759Z,25.27
2019-04-30T06:22:40.904Z,28.13
2019-04-30T06:25:12.349Z,22.57
2019-04-30T06:27:43.862Z,22.40
2019-04-30T06:30:15.823Z,25.70
2019-04-30T06:32:47.272Z,19.47
2019-04-30T06:35:19.347Z,25.60
2019-04-30T06:37:50.687Z,19.70
2019-04-30T06:40:21.991Z,22.10
2019-04-30T06:42:53.844Z,27.53
2019-04-30T06:45:25.175Z,20.47
2019-04-30T06:47:58.706Z,19.60
2019-04-30T06:50:30.099Z,20.17
2019-04-30T06:53:02.210Z,19.17
2019-04-30T06:55:33.178Z,18.00
2019-04-30T06:58:14.742Z,21.43
2019-04-30T07:00:39.970Z,17.07
2019-04-30T07:03:11.414Z,15.03
2019-04-30T07:05:42.463Z,19.23
2019-04-30T07:08:39.582Z,16.77
2019-04-30T07:11:21.833Z,17.40
2019-04-30T07:13:53.110Z,17.70
2019-04-30T07:16:24.228Z,17.60
2019-04-30T07:18:55.278Z,17.77
2019-04-30T07:21:26.257Z,20.27
2019-04-30T07:23:57.249Z,15.33
2019-04-30T07:26:28.964Z,17.33
2019-04-30T07:29:02.567Z,15.77
2019-04-30T07:31:32.804Z,15.30
2019-04-30T07:34:03.805Z,15.07
2019-04-30T07:36:45.170Z,14.30
2019-04-30T07:39:09.998Z,14.57
2019-04-30T07:41:41.115Z,16.20
2019-04-30T07:44:29.427Z,13.60
2019-04-30T07:46:45.476Z,14.17
2019-04-30T07:49:16.638Z,12.10
2019-04-30T07:51:49.087Z,13.10
2019-04-30T07:54:20.399Z,14.30
2019-04-30T07:56:51.518Z,12.73
2019-04-30T07:59:22.536Z,13.53
2019-04-30T08:02:04.093Z,13.23
2019-04-30T08:04:43.975Z,11.60
2019-04-30T08:07:15.187Z,13.30
2019-04-30T08:09:46.281Z,11.87
2019-04-30T08:12:28.206Z,13.17
2019-04-30T08:14:50.122Z,11.60
2019-04-30T08:17:21.080Z,11.37
2019-04-30T08:19:52.062Z,12.53
2019-04-30T08:22:23.038Z,10.53
2019-04-30T08:24:54.031Z,10.50
2019-04-30T08:27:25.021Z,9.40
2019-04-30T08:29:55.993Z,8.50
2019-04-30T08:32:28.887Z,8.97
2019-04-30T08:35:01.167Z,8.27
2019-04-30T08:37:32.258Z,9.20
2019-04-30T08:40:03.624Z,9.17
2019-04-30T08:42:37.715Z,9.80
2019-04-30T08:45:09.477Z,8.93
2019-04-30T08:47:40.791Z,8.30
2019-04-30T08:50:12.796Z,8.53
2019-04-30T08:52:43.982Z,9.17
2019-04-30T08:55:17.102Z,10.30
2019-04-30T08:57:50.024Z,26.60
2019-04-30T09:00:21.853Z,11.50
2019-04-30T09:02:52.864Z,9.03
2019-04-30T09:05:30.604Z,8.17
2019-04-30T09:08:01.828Z,10.80
2019-04-30T09:10:32.873Z,10.90
2019-04-30T09:13:04.087Z,8.27
2019-04-30T09:15:35.203Z,7.30
2019-04-30T09:18:10.260Z,8.40
2019-04-30T09:20:40.902Z,7.67
2019-04-30T09:23:12.084Z,10.53
2019-04-30T09:25:43.115Z,8.43
2019-04-30T09:28:14.168Z,11.90
2019-04-30T09:30:45.333Z,9.10
2019-04-30T09:33:16.312Z,9.27
2019-04-30T09:35:49.399Z,7.87
2019-04-30T09:38:20.578Z,9.27
2019-04-30T09:40:51.555Z,10.20
2019-04-30T09:43:22.555Z,7.00
2019-04-30T09:45:53.680Z,7.43
2019-04-30T09:48:24.721Z,11.00
2019-04-30T09:50:55.990Z,7.00
2019-04-30T09:53:29.392Z,7.07
2019-04-30T09:56:00.066Z,9.47
2019-04-30T09:58:31.213Z,6.70
2019-04-30T10:01:02.362Z,8.40
2019-04-30T10:03:34.267Z,9.03
2019-04-30T10:06:06.102Z,7.53
2019-04-30T10:08:47.986Z,9.20
2019-04-30T10:11:16.285Z,8.43
2019-04-30T10:13:47.338Z,7.23
2019-04-30T10:16:39.654Z,8.80
2019-04-30T10:19:10.734Z,11.77
2019-04-30T10:21:41.792Z,13.80
2019-04-30T10:24:15.611Z,12.17
2019-04-30T10:26:45.714Z,14.57
2019-04-30T10:29:18.530Z,11.87
2019-04-30T10:31:49.826Z,15.30
2019-04-30T10:34:20.908Z,11.50
2019-04-30T10:36:52.182Z,12.17
2019-04-30T10:39:23.796Z,13.90
2019-04-30T10:41:55.137Z,13.10
2019-04-30T10:44:26.213Z,11.37
2019-04-30T10:46:59.217Z,15.33
2019-04-30T10:49:29.971Z,13.17
2019-04-30T10:52:01.251Z,10.53
2019-04-30T10:54:32.639Z,8.23
2019-04-30T10:57:03.748Z,8.40
2019-04-30T10:59:34.786Z,5.53
2019-04-30T11:02:06.151Z,6.07
2019-04-30T11:04:37.214Z,6.60
2019-04-30T11:07:08.834Z,6.50
2019-04-30T11:09:40.045Z,7.40
2019-04-30T11:12:11.228Z,9.47
2019-04-30T11:14:42.565Z,9.27
2019-04-30T11:17:13.778Z,11.57
2019-04-30T11:19:45.105Z,15.30
2019-04-30T11:22:16.386Z,17.50
2019-04-30T11:24:58.754Z,19.77
2019-04-30T11:27:21.414Z,16.50
2019-04-30T11:29:53.016Z,14.77
2019-04-30T11:32:25.169Z,14.40
2019-04-30T11:34:56.302Z,16.10
2019-04-30T11:37:27.470Z,14.63
2019-04-30T11:39:58.595Z,14.90
2019-04-30T11:42:32.214Z,15.67
2019-04-30T11:45:02.894Z,18.30
2019-04-30T11:47:35.044Z,15.50
2019-04-30T11:50:13.364Z,16.17
2019-04-30T11:52:44.709Z,16.13
2019-04-30T11:55:16.123Z,15.10
2019-04-30T11:57:49.405Z,16.97
2019-04-30T12:00:27.180Z,17.97
2019-04-30T12:02:59.347Z,17.37
2019-04-30T12:05:30.560Z,18.70
2019-04-30T12:08:16.272Z,19.80
2019-04-30T12:11:15.396Z,16.17
2019-04-30T12:13:46.524Z,17.60
2019-04-30T12:16:18.609Z,18.43
2019-04-30T12:18:49.677Z,17.83
2019-04-30T12:21:20.672Z,17.40
2019-04-30T12:23:51.679Z,15.90
2019-04-30T12:26:22.720Z,17.03
2019-04-30T12:28:53.741Z,20.07
2019-04-30T12:31:24.749Z,21.30
2019-04-30T12:33:55.753Z,22.17
2019-04-30T12:36:28.790Z,23.40
2019-04-30T12:39:00.531Z,23.47
2019-04-30T12:41:33.143Z,23.67
2019-04-30T12:44:04.223Z,22.17
2019-04-30T12:46:35.287Z,24.30
2019-04-30T12:49:11.555Z,27.33
2019-04-30T12:52:05.673Z,24.50
2019-04-30T12:54:53.795Z,25.27
2019-04-30T12:57:39.138Z,27.23
2019-04-30T13:00:12.133Z,23.60
2019-04-30T13:02:43.141Z,23.37
2019-04-30T13:05:14.719Z,23.70
2019-04-30T13:07:46.092Z,23.97
2019-04-30T13:10:18.395Z,23.23
2019-04-30T13:12:50.282Z,23.53
2019-04-30T13:15:21.987Z,22.97
2019-04-30T13:17:52.956Z,23.10
2019-04-30T13:20:25.343Z,23.60
2019-04-30T13:22:56.400Z,21.93
2019-04-30T13:25:34.792Z,23.90
2019-04-30T13:28:05.069Z,24.43
2019-04-30T13:30:36.233Z,23.00
2019-04-30T13:33:31.462Z,23.17
2019-04-30T13:36:02.449Z,22.93
2019-04-30T13:39:04.703Z,22.83
2019-04-30T13:42:01.047Z,21.97
2019-04-30T13:44:36.011Z,22.10
2019-04-30T13:47:10.672Z,23.40
2019-04-30T13:49:40.110Z,23.23
2019-04-30T13:52:11.156Z,21.33
2019-04-30T13:54:42.177Z,20.40
2019-04-30T13:57:13.253Z,20.57
2019-04-30T13:59:44.298Z,19.50
2019-04-30T14:02:15.507Z,21.20
2019-04-30T14:04:53.344Z,20.60
2019-04-30T14:07:39.951Z,21.07
2019-04-30T14:10:11.108Z,22.53
2019-04-30T14:12:47.473Z,20.63
2019-04-30T14:15:19.271Z,20.83
2019-04-30T14:17:50.568Z,20.50
2019-04-30T14:20:22.317Z,19.87
2019-04-30T14:22:53.321Z,18.30
2019-04-30T14:25:24.381Z,18.13
2019-04-30T14:27:55.612Z,18.53
2019-04-30T14:30:29.141Z,17.63
2019-04-30T14:32:59.913Z,20.23
2019-04-30T14:35:31.083Z,21.27
2019-04-30T14:38:02.096Z,18.00
2019-04-30T14:40:33.609Z,18.80
2019-04-30T14:43:30.867Z,20.17
2019-04-30T14:46:30.762Z,18.97
2019-04-30T14:49:23.198Z,17.87
2019-04-30T14:51:54.755Z,18.50
2019-04-30T14:54:39.262Z,18.63
2019-04-30T14:57:32.221Z,19.10
2019-04-30T15:00:23.249Z,19.10
2019-04-30T15:02:59.566Z,18.93
2019-04-30T15:05:38.859Z,18.27
2019-04-30T15:08:03.433Z,19.90
2019-04-30T15:10:34.685Z,18.63
2019-04-30T15:14:11.377Z,19.70
2019-04-30T15:16:42.501Z,18.70
2019-04-30T15:19:13.569Z,20.20
2019-04-30T15:21:45.251Z,20.30
2019-04-30T15:24:26.962Z,19.60
2019-04-30T15:26:58.223Z,19.70
2019-04-30T15:29:29.350Z,18.40
2019-04-30T15:32:00.514Z,19.83
2019-04-30T15:34:31.555Z,19.50
2019-04-30T15:37:02.659Z,20.27
2019-04-30T15:39:52.360Z,20.47
2019-04-30T15:42:24.476Z,17.70
2019-04-30T15:44:55.772Z,17.90
2019-04-30T15:47:28.797Z,17.40
2019-04-30T15:50:02.179Z,18.27
2019-04-30T15:52:32.542Z,18.57
2019-04-30T15:55:03.672Z,19.03
2019-04-30T15:57:49.435Z,19.03
2019-04-30T16:00:21.101Z,19.97
2019-04-30T16:03:00.633Z,19.17
2019-04-30T16:05:34.318Z,18.70
2019-04-30T16:08:23.122Z,18.87
2019-04-30T16:11:10.570Z,19.60
2019-04-30T16:14:10.723Z,20.77
2019-04-30T16:16:44.430Z,19.57
2019-04-30T16:19:15.396Z,20.10
2019-04-30T16:21:46.442Z,20.37
2019-04-30T16:24:18.736Z,19.93
2019-04-30T16:26:52.713Z,20.27
2019-04-30T16:29:23.031Z,20.10
2019-04-30T16:31:54.475Z,17.80
2019-04-30T16:34:25.545Z,18.40
2019-04-30T16:36:56.627Z,18.07
2019-04-30T16:39:28.821Z,18.10
2019-04-30T16:41:59.908Z,20.80
2019-04-30T16:44:30.959Z,19.80
2019-04-30T16:47:13.153Z,18.30
2019-04-30T16:49:34.792Z,16.93
2019-04-30T16:52:06.100Z,17.43
2019-04-30T16:54:37.179Z,18.30
2019-04-30T16:57:10.300Z,16.93
2019-04-30T16:59:42.327Z,18.53
2019-04-30T17:02:14.540Z,16.83
2019-04-30T17:04:51.083Z,16.67
2019-04-30T17:07:44.884Z,16.93
2019-04-30T17:10:22.009Z,16.47
2019-04-30T17:13:00.027Z,17.60
2019-04-30T17:15:31.983Z,16.30
2019-04-30T17:18:03.229Z,16.97
2019-04-30T17:20:34.265Z,16.10
2019-04-30T17:23:05.246Z,17.20
2019-04-30T17:25:36.283Z,16.97
2019-04-30T17:28:09.190Z,16.83
2019-04-30T17:30:40.143Z,17.43
2019-04-30T17:33:11.154Z,17.00
2019-04-30T17:35:42.169Z,17.17
2019-04-30T17:38:13.544Z,16.63
2019-04-30T17:40:44.540Z,17.07
2019-04-30T17:43:15.539Z,16.80
2019-04-30T17:45:49.313Z,17.30
2019-04-30T17:48:20.379Z,18.13
2019-04-30T17:50:51.377Z,18.80
2019-04-30T17:53:22.505Z,16.70
2019-04-30T17:55:53.543Z,18.70
2019-04-30T17:58:24.574Z,18.17
2019-04-30T18:00:57.341Z,16.23
2019-04-30T18:03:28.955Z,17.10
2019-04-30T18:05:59.951Z,17.67
2019-04-30T18:08:31.025Z,18.60
2019-04-30T18:11:01.997Z,17.63
2019-04-30T18:13:33.072Z,16.63
2019-04-30T18:16:04.223Z,17.17
2019-04-30T18:18:42.724Z,17.30
2019-04-30T18:21:23.118Z,18.80
2019-04-30T18:24:12.023Z,18.87
2019-04-30T18:26:49.257Z,16.93
2019-04-30T18:29:20.264Z,17.50
2019-04-30T18:31:51.245Z,18.37
2019-04-30T18:34:22.264Z,18.47
2019-04-30T18:36:53.383Z,18.23
2019-04-30T18:39:24.346Z,18.83
2019-04-30T18:41:55.443Z,18.77
2019-04-30T18:44:26.440Z,18.63
2019-04-30T18:46:59.066Z,19.27
2019-04-30T18:49:30.090Z,19.20
2019-04-30T18:52:01.171Z,18.80
2019-04-30T18:54:32.285Z,18.00
2019-04-30T18:57:03.438Z,18.50
2019-04-30T18:59:34.506Z,20.47
2019-04-30T19:02:07.282Z,18.23
2019-04-30T19:04:40.601Z,17.47
2019-04-30T19:07:25.932Z,18.10
2019-04-30T19:10:34.099Z,19.83
2019-04-30T19:17:02.870Z,18.70
2019-04-30T19:19:50.909Z,18.93
2019-04-30T19:22:21.902Z,18.90
2019-04-30T19:24:58.562Z,19.80
2019-04-30T19:27:25.849Z,19.07
2019-04-30T19:29:56.832Z,17.33
2019-04-30T19:32:30.313Z,18.30
2019-04-30T19:35:00.764Z,19.50
2019-04-30T19:37:33.064Z,19.80
2019-04-30T19:40:05.575Z,18.63
2019-04-30T19:42:36.572Z,18.70
2019-04-30T19:45:10.289Z,19.93
2019-04-30T19:47:40.715Z,18.90
2019-04-30T19:50:14.123Z,18.40
2019-04-30T19:52:44.551Z,18.57
2019-04-30T19:55:15.764Z,18.60
2019-04-30T19:57:48.401Z,17.33
2019-04-30T20:00:19.777Z,18.67
2019-04-30T20:02:50.744Z,19.00
2019-04-30T20:05:21.757Z,18.10
2019-04-30T20:07:52.756Z,18.50
2019-04-30T20:10:23.770Z,19.57
2019-04-30T20:12:54.750Z,19.30
2019-04-30T20:15:26.858Z,17.63
2019-04-30T20:17:58.705Z,19.97
2019-04-30T20:20:30.662Z,19.00
2019-04-30T20:23:01.695Z,18.10
2019-04-30T20:25:32.845Z,19.63
2019-04-30T20:28:03.898Z,19.37
2019-04-30T20:30:34.917Z,18.93
2019-04-30T20:33:06.099Z,19.70
2019-04-30T20:35:39.019Z,20.23
2019-04-30T20:38:38.256Z,19.73
2019-04-30T20:41:10.065Z,18.13
2019-04-30T20:43:41.088Z,19.23
2019-04-30T20:46:12.092Z,19.87
2019-04-30T20:48:43.066Z,19.37
2019-04-30T20:51:14.069Z,20.67
2019-04-30T20:53:45.064Z,18.93
2019-04-30T20:56:16.086Z,20.13
2019-04-30T20:58:57.254Z,18.20
2019-04-30T21:01:19.782Z,19.23
2019-04-30T21:03:50.773Z,18.83
2019-04-30T21:06:21.783Z,20.00
2019-04-30T21:08:52.762Z,19.30
2019-04-30T21:11:23.759Z,18.20
2019-04-30T21:13:54.742Z,18.77
2019-04-30T21:16:25.807Z,18.80
2019-04-30T21:18:56.773Z,20.27
2019-04-30T21:21:28.802Z,18.97
2019-04-30T21:23:59.931Z,18.80
2019-04-30T21:26:30.963Z,18.83
2019-04-30T21:29:11.158Z,19.23
2019-04-30T21:31:41.169Z,20.63
2019-04-30T21:34:21.025Z,20.00
2019-04-30T21:36:52.171Z,19.00
2019-04-30T21:39:23.189Z,19.97
2019-04-30T21:41:54.202Z,17.80
2019-04-30T21:44:25.212Z,19.93
2019-04-30T21:46:57.335Z,20.87
2019-04-30T21:49:28.354Z,19.90
2019-04-30T21:51:59.377Z,21.00
2019-04-30T21:54:30.616Z,18.83
2019-04-30T21:57:01.600Z,21.20
2019-04-30T21:59:32.604Z,22.27
2019-04-30T22:02:03.689Z,20.20
2019-04-30T22:04:34.719Z,22.60
2019-04-30T22:07:05.817Z,22.30
2019-04-30T22:09:36.813Z,21.90
2019-04-30T22:12:09.218Z,21.90
2019-04-30T22:14:40.412Z,22.60
2019-04-30T22:17:11.448Z,23.23
2019-04-30T22:19:42.483Z,25.20
2019-04-30T22:22:13.553Z,24.27
2019-04-30T22:24:44.648Z,23.77
2019-04-30T22:27:17.484Z,22.50
2019-04-30T22:29:48.487Z,23.47
2019-04-30T22:32:19.469Z,22.80
2019-04-30T22:34:50.457Z,22.93
2019-04-30T22:37:21.435Z,22.13
2019-04-30T22:39:59.389Z,21.97
2019-04-30T22:42:32.991Z,21.63
2019-04-30T22:45:07.692Z,21.50
2019-04-30T22:47:38.659Z,22.10
2019-04-30T22:50:10.479Z,21.50
2019-04-30T22:52:41.494Z,22.27
2019-04-30T22:55:12.589Z,21.30
2019-04-30T22:57:43.807Z,21.70
2019-04-30T23:00:22.525Z,20.87
2019-04-30T23:02:59.353Z,22.10
2019-04-30T23:05:30.533Z,19.97
2019-04-30T23:08:01.505Z,20.80
2019-04-30T23:10:32.558Z,21.00
2019-04-30T23:13:03.607Z,21.77
2019-04-30T23:15:34.902Z,19.43
2019-04-30T23:18:06.228Z,20.40
2019-04-30T23:20:37.282Z,20.17
2019-04-30T23:23:08.248Z,21.50
2019-04-30T23:25:39.323Z,21.30
2019-04-30T23:28:10.312Z,22.60
2019-04-30T23:30:41.295Z,21.00
2019-04-30T23:33:12.327Z,21.70
2019-04-30T23:35:43.320Z,21.60
2019-04-30T23:38:14.449Z,20.77
2019-04-30T23:40:51.679Z,20.30
2019-04-30T23:43:22.823Z,20.60
2019-04-30T23:45:53.881Z,20.83
2019-04-30T23:48:24.860Z,21.40
2019-04-30T23:50:55.849Z,21.80
2019-04-30T23:53:26.844Z,22.70
2019-04-30T23:55:57.895Z,20.47
2019-04-30T23:58:28.874Z,20.93
